sensor_id;sensor_type;location;lat;lon;timestamp;pressure;altitude;pressure_sealevel;temperature;humidity
71299;BME280;59083;47.974;21.722;2023-02-19T00:02:26;100163.56;;;7.77;96.90
71299;BME280;59083;47.974;21.722;2023-02-19T00:05:27;100158.41;;;7.75;97.01
71299;BME280;59083;47.974;21.722;2023-02-19T00:08:31;100165.38;;;7.76;97.35
71299;BME280;59083;47.974;21.722;2023-02-19T00:11:33;100169.37;;;7.72;97.25
71299;BME280;59083;47.974;21.722;2023-02-19T00:14:35;100174.56;;;7.66;97.40
71299;BME280;59083;47.974;21.722;2023-02-19T00:17:36;100186.31;;;7.63;97.66
71299;BME280;59083;47.974;21.722;2023-02-19T00:20:37;100187.97;;;7.64;97.74
71299;BME280;59083;47.974;21.722;2023-02-19T00:23:39;100195.31;;;7.62;97.81
71299;BME280;59083;47.974;21.722;2023-02-19T00:26:41;100192.34;;;7.57;98.01
71299;BME280;59083;47.974;21.722;2023-02-19T00:29:43;100187.38;;;7.54;98.04
71299;BME280;59083;47.974;21.722;2023-02-19T00:32:49;100183.72;;;7.55;97.93
71299;BME280;59083;47.974;21.722;2023-02-19T00:35:50;100190.56;;;7.50;98.14
71299;BME280;59083;47.974;21.722;2023-02-19T00:38:51;100195.72;;;7.43;98.32
71299;BME280;59083;47.974;21.722;2023-02-19T00:41:53;100199.03;;;7.45;98.17
71299;BME280;59083;47.974;21.722;2023-02-19T00:44:54;100196.53;;;7.43;98.01
71299;BME280;59083;47.974;21.722;2023-02-19T00:47:55;100204.66;;;7.42;97.91
71299;BME280;59083;47.974;21.722;2023-02-19T00:50:57;100208.66;;;7.38;97.96
71299;BME280;59083;47.974;21.722;2023-02-19T00:53:59;100204.03;;;7.40;97.53
71299;BME280;59083;47.974;21.722;2023-02-19T00:57:00;100201.00;;;7.43;97.36
71299;BME280;59083;47.974;21.722;2023-02-19T01:00:02;100200.31;;;7.49;96.81
71299;BME280;59083;47.974;21.722;2023-02-19T01:03:03;100205.47;;;7.42;97.04
71299;BME280;59083;47.974;21.722;2023-02-19T01:06:06;100200.53;;;7.39;97.05
71299;BME280;59083;47.974;21.722;2023-02-19T01:09:08;100197.56;;;7.34;97.26
71299;BME280;59083;47.974;21.722;2023-02-19T01:12:09;100198.22;;;7.36;97.21
71299;BME280;59083;47.974;21.722;2023-02-19T01:15:11;100200.03;;;7.36;97.22
71299;BME280;59083;47.974;21.722;2023-02-19T01:18:12;100198.53;;;7.41;97.07
71299;BME280;59083;47.974;21.722;2023-02-19T01:21:18;100199.03;;;7.45;96.69
71299;BME280;59083;47.974;21.722;2023-02-19T01:24:20;100201.84;;;7.43;96.72
71299;BME280;59083;47.974;21.722;2023-02-19T01:27:21;100188.41;;;7.45;96.57
71299;BME280;59083;47.974;21.722;2023-02-19T01:30:22;100195.38;;;7.46;96.26
71299;BME280;59083;47.974;21.722;2023-02-19T01:33:23;100194.88;;;7.42;96.20
71299;BME280;59083;47.974;21.722;2023-02-19T01:36:25;100199.34;;;7.42;96.13
71299;BME280;59083;47.974;21.722;2023-02-19T01:39:27;100210.63;;;7.36;96.21
71299;BME280;59083;47.974;21.722;2023-02-19T01:42:28;100211.00;;;7.33;96.24
71299;BME280;59083;47.974;21.722;2023-02-19T01:45:33;100213.66;;;7.33;95.96
71299;BME280;59083;47.974;21.722;2023-02-19T01:48:37;100206.00;;;7.30;96.07
71299;BME280;59083;47.974;21.722;2023-02-19T01:51:59;100210.00;;;7.26;96.07
71299;BME280;59083;47.974;21.722;2023-02-19T01:55:04;100214.31;;;7.27;95.48
71299;BME280;59083;47.974;21.722;2023-02-19T01:58:07;100216.63;;;7.30;95.15
71299;BME280;59083;47.974;21.722;2023-02-19T02:01:12;100221.75;;;7.31;94.48
71299;BME280;59083;47.974;21.722;2023-02-19T02:04:14;100219.63;;;7.27;94.76
71299;BME280;59083;47.974;21.722;2023-02-19T02:07:17;100220.97;;;7.23;94.66
71299;BME280;59083;47.974;21.722;2023-02-19T02:10:57;100224.25;;;7.25;94.55
71299;BME280;59083;47.974;21.722;2023-02-19T02:13:59;100222.94;;;7.21;94.51
71299;BME280;59083;47.974;21.722;2023-02-19T02:17:25;100223.28;;;7.18;94.61
71299;BME280;59083;47.974;21.722;2023-02-19T02:23:55;100212.66;;;7.26;93.93
71299;BME280;59083;47.974;21.722;2023-02-19T02:30:28;100217.13;;;7.33;93.63
71299;BME280;59083;47.974;21.722;2023-02-19T02:33:37;100211.47;;;7.36;93.53
71299;BME280;59083;47.974;21.722;2023-02-19T02:36:43;100211.97;;;7.40;93.14
71299;BME280;59083;47.974;21.722;2023-02-19T02:39:46;100209.94;;;7.42;92.76
71299;BME280;59083;47.974;21.722;2023-02-19T02:42:48;100210.94;;;7.41;92.79
71299;BME280;59083;47.974;21.722;2023-02-19T02:45:49;100216.59;;;7.38;92.85
71299;BME280;59083;47.974;21.722;2023-02-19T02:48:56;100217.59;;;7.37;92.74
71299;BME280;59083;47.974;21.722;2023-02-19T02:51:59;100226.22;;;7.39;92.53
71299;BME280;59083;47.974;21.722;2023-02-19T02:55:21;100233.00;;;7.41;92.21
71299;BME280;59083;47.974;21.722;2023-02-19T02:58:23;100241.44;;;7.45;91.81
71299;BME280;59083;47.974;21.722;2023-02-19T03:01:32;100237.81;;;7.46;91.57
71299;BME280;59083;47.974;21.722;2023-02-19T03:08:36;100241.63;;;7.35;92.45
71299;BME280;59083;47.974;21.722;2023-02-19T03:11:41;100240.78;;;7.35;92.37
71299;BME280;59083;47.974;21.722;2023-02-19T03:15:06;100254.72;;;7.37;92.32
71299;BME280;59083;47.974;21.722;2023-02-19T03:18:29;100257.37;;;7.37;92.38
71299;BME280;59083;47.974;21.722;2023-02-19T03:21:58;100268.44;;;7.40;92.24
71299;BME280;59083;47.974;21.722;2023-02-19T03:25:06;100271.59;;;7.44;91.97
71299;BME280;59083;47.974;21.722;2023-02-19T03:28:29;100272.59;;;7.51;91.69
71299;BME280;59083;47.974;21.722;2023-02-19T03:31:54;100266.75;;;7.56;91.53
71299;BME280;59083;47.974;21.722;2023-02-19T03:35:05;100272.69;;;7.58;91.34
71299;BME280;59083;47.974;21.722;2023-02-19T03:38:15;100280.16;;;7.62;91.38
71299;BME280;59083;47.974;21.722;2023-02-19T03:44:52;100279.44;;;7.76;90.71
71299;BME280;59083;47.974;21.722;2023-02-19T03:57:58;100266.06;;;8.01;89.40
71299;BME280;59083;47.974;21.722;2023-02-19T04:01:12;100263.41;;;8.01;88.96
71299;BME280;59083;47.974;21.722;2023-02-19T04:04:21;100255.28;;;8.02;89.13
71299;BME280;59083;47.974;21.722;2023-02-19T04:07:27;100242.88;;;7.95;89.10
71299;BME280;59083;47.974;21.722;2023-02-19T04:10:29;100236.91;;;7.93;89.31
71299;BME280;59083;47.974;21.722;2023-02-19T04:13:36;100237.31;;;7.81;89.46
71299;BME280;59083;47.974;21.722;2023-02-19T04:16:44;100232.56;;;7.69;89.73
71299;BME280;59083;47.974;21.722;2023-02-19T04:19:49;100232.75;;;7.59;90.21
71299;BME280;59083;47.974;21.722;2023-02-19T04:22:51;100246.75;;;7.45;90.66
71299;BME280;59083;47.974;21.722;2023-02-19T04:25:55;100242.81;;;7.33;91.08
71299;BME280;59083;47.974;21.722;2023-02-19T04:28:59;100243.81;;;7.24;91.63
71299;BME280;59083;47.974;21.722;2023-02-19T04:32:00;100251.28;;;7.20;91.81
71299;BME280;59083;47.974;21.722;2023-02-19T04:35:01;100248.81;;;7.11;92.02
71299;BME280;59083;47.974;21.722;2023-02-19T04:38:02;100236.75;;;7.00;92.54
71299;BME280;59083;47.974;21.722;2023-02-19T04:41:04;100239.03;;;6.95;92.80
71299;BME280;59083;47.974;21.722;2023-02-19T04:44:05;100238.25;;;6.86;93.11
71299;BME280;59083;47.974;21.722;2023-02-19T04:47:06;100240.06;;;6.86;93.00
71299;BME280;59083;47.974;21.722;2023-02-19T04:50:07;100236.41;;;6.79;93.28
71299;BME280;59083;47.974;21.722;2023-02-19T04:53:09;100252.81;;;6.74;93.65
71299;BME280;59083;47.974;21.722;2023-02-19T04:56:13;100256.63;;;6.72;94.10
71299;BME280;59083;47.974;21.722;2023-02-19T04:59:15;100259.44;;;6.70;94.13
71299;BME280;59083;47.974;21.722;2023-02-19T05:02:16;100259.09;;;6.73;94.08
71299;BME280;59083;47.974;21.722;2023-02-19T05:05:17;100252.81;;;6.74;94.03
71299;BME280;59083;47.974;21.722;2023-02-19T05:08:18;100253.47;;;6.68;94.03
71299;BME280;59083;47.974;21.722;2023-02-19T05:11:20;100244.22;;;6.64;94.48
71299;BME280;59083;47.974;21.722;2023-02-19T05:14:23;100240.25;;;6.60;94.69
71299;BME280;59083;47.974;21.722;2023-02-19T05:17:25;100251.16;;;6.57;95.10
71299;BME280;59083;47.974;21.722;2023-02-19T05:20:26;100242.22;;;6.58;94.96
71299;BME280;59083;47.974;21.722;2023-02-19T05:23:27;100249.00;;;6.52;95.30
71299;BME280;59083;47.974;21.722;2023-02-19T05:26:29;100247.88;;;6.55;95.39
71299;BME280;59083;47.974;21.722;2023-02-19T05:29:31;100247.88;;;6.55;95.90
71299;BME280;59083;47.974;21.722;2023-02-19T05:32:33;100239.94;;;6.55;95.72
71299;BME280;59083;47.974;21.722;2023-02-19T05:35:49;100260.75;;;6.58;95.29
71299;BME280;59083;47.974;21.722;2023-02-19T05:38:53;100254.47;;;6.59;95.35
71299;BME280;59083;47.974;21.722;2023-02-19T05:41:54;100250.84;;;6.60;95.43
71299;BME280;59083;47.974;21.722;2023-02-19T05:44:55;100239.06;;;6.62;95.29
71299;BME280;59083;47.974;21.722;2023-02-19T05:47:57;100249.00;;;6.69;95.27
71299;BME280;59083;47.974;21.722;2023-02-19T05:51:06;100255.62;;;6.73;94.92
71299;BME280;59083;47.974;21.722;2023-02-19T05:54:07;100257.94;;;6.76;94.67
71299;BME280;59083;47.974;21.722;2023-02-19T05:57:10;100241.91;;;6.77;94.05
71299;BME280;59083;47.974;21.722;2023-02-19T06:00:13;100238.22;;;6.78;94.13
71299;BME280;59083;47.974;21.722;2023-02-19T06:03:15;100233.97;;;6.77;94.32
71299;BME280;59083;47.974;21.722;2023-02-19T06:06:17;100230.81;;;6.82;94.01
71299;BME280;59083;47.974;21.722;2023-02-19T06:09:18;100234.94;;;6.76;93.90
71299;BME280;59083;47.974;21.722;2023-02-19T06:12:20;100242.22;;;6.82;93.82
71299;BME280;59083;47.974;21.722;2023-02-19T06:15:21;100246.53;;;6.83;93.61
71299;BME280;59083;47.974;21.722;2023-02-19T06:18:22;100226.00;;;6.77;93.52
71299;BME280;59083;47.974;21.722;2023-02-19T06:21:24;100225.66;;;6.80;93.71
71299;BME280;59083;47.974;21.722;2023-02-19T06:24:25;100222.03;;;6.81;93.41
71299;BME280;59083;47.974;21.722;2023-02-19T06:27:26;100223.03;;;6.88;93.03
71299;BME280;59083;47.974;21.722;2023-02-19T06:30:28;100227.97;;;6.91;93.03
71299;BME280;59083;47.974;21.722;2023-02-19T06:33:31;100236.91;;;6.90;92.76
71299;BME280;59083;47.974;21.722;2023-02-19T06:36:32;100241.53;;;6.96;92.52
71299;BME280;59083;47.974;21.722;2023-02-19T06:39:34;100231.28;;;6.93;92.76
71299;BME280;59083;47.974;21.722;2023-02-19T06:42:35;100229.28;;;6.95;92.97
71299;BME280;59083;47.974;21.722;2023-02-19T06:45:36;100225.31;;;6.99;92.88
71299;BME280;59083;47.974;21.722;2023-02-19T06:48:38;100230.28;;;7.02;92.26
71299;BME280;59083;47.974;21.722;2023-02-19T06:51:40;100219.34;;;7.05;92.09
71299;BME280;59083;47.974;21.722;2023-02-19T06:54:41;100226.94;;;7.09;92.52
71299;BME280;59083;47.974;21.722;2023-02-19T06:57:42;100237.37;;;7.10;91.99
71299;BME280;59083;47.974;21.722;2023-02-19T07:00:43;100225.97;;;7.10;91.96
71299;BME280;59083;47.974;21.722;2023-02-19T07:03:45;100220.66;;;7.10;91.91
71299;BME280;59083;47.974;21.722;2023-02-19T07:06:46;100231.09;;;7.03;92.35
71299;BME280;59083;47.974;21.722;2023-02-19T07:09:47;100232.28;;;7.00;92.24
71299;BME280;59083;47.974;21.722;2023-02-19T07:12:48;100229.44;;;7.02;92.48
71299;BME280;59083;47.974;21.722;2023-02-19T07:15:50;100231.56;;;7.06;92.41
71299;BME280;59083;47.974;21.722;2023-02-19T07:18:51;100221.81;;;7.07;92.68
71299;BME280;59083;47.974;21.722;2023-02-19T07:21:52;100208.41;;;7.09;92.95
71299;BME280;59083;47.974;21.722;2023-02-19T07:24:53;100198.44;;;7.19;92.64
71299;BME280;59083;47.974;21.722;2023-02-19T07:27:55;100189.63;;;7.26;92.28
71299;BME280;59083;47.974;21.722;2023-02-19T07:31:00;100182.47;;;7.35;92.23
71299;BME280;59083;47.974;21.722;2023-02-19T07:34:02;100184.41;;;7.49;92.01
71299;BME280;59083;47.974;21.722;2023-02-19T07:37:03;100201.62;;;7.53;91.18
71299;BME280;59083;47.974;21.722;2023-02-19T07:40:05;100196.94;;;7.63;91.26
71299;BME280;59083;47.974;21.722;2023-02-19T07:43:06;100185.31;;;7.72;91.03
71299;BME280;59083;47.974;21.722;2023-02-19T07:46:10;100180.59;;;7.82;90.51
71299;BME280;59083;47.974;21.722;2023-02-19T07:49:11;100185.56;;;7.85;90.07
71299;BME280;59083;47.974;21.722;2023-02-19T07:52:13;100185.22;;;7.88;89.88
71299;BME280;59083;47.974;21.722;2023-02-19T07:55:14;100179.31;;;7.78;90.06
71299;BME280;59083;47.974;21.722;2023-02-19T07:58:16;100186.50;;;7.93;89.84
71299;BME280;59083;47.974;21.722;2023-02-19T08:01:21;100184.88;;;7.92;89.90
71299;BME280;59083;47.974;21.722;2023-02-19T08:04:42;100178.03;;;7.97;89.86
71299;BME280;59083;47.974;21.722;2023-02-19T08:07:43;100186.75;;;8.06;89.75
71299;BME280;59083;47.974;21.722;2023-02-19T08:10:45;100187.00;;;8.19;89.37
71299;BME280;59083;47.974;21.722;2023-02-19T08:14:05;100191.62;;;8.25;88.93
71299;BME280;59083;47.974;21.722;2023-02-19T08:17:06;100194.50;;;8.38;88.40
71299;BME280;59083;47.974;21.722;2023-02-19T08:20:07;100198.47;;;8.42;88.07
71299;BME280;59083;47.974;21.722;2023-02-19T08:23:10;100197.03;;;8.54;87.74
71299;BME280;59083;47.974;21.722;2023-02-19T08:26:11;100194.69;;;8.59;87.83
71299;BME280;59083;47.974;21.722;2023-02-19T08:29:12;100181.31;;;8.67;87.42
71299;BME280;59083;47.974;21.722;2023-02-19T08:32:13;100183.72;;;8.77;87.09
71299;BME280;59083;47.974;21.722;2023-02-19T08:35:15;100179.53;;;8.83;87.46
71299;BME280;59083;47.974;21.722;2023-02-19T08:38:16;100182.66;;;8.86;87.40
71299;BME280;59083;47.974;21.722;2023-02-19T08:41:17;100179.25;;;8.92;87.11
71299;BME280;59083;47.974;21.722;2023-02-19T08:44:18;100179.91;;;9.09;86.82
71299;BME280;59083;47.974;21.722;2023-02-19T08:47:20;100189.09;;;9.21;86.49
71299;BME280;59083;47.974;21.722;2023-02-19T08:50:21;100184.41;;;9.23;86.28
71299;BME280;59083;47.974;21.722;2023-02-19T08:53:22;100192.94;;;9.33;85.90
71299;BME280;59083;47.974;21.722;2023-02-19T08:56:23;100197.53;;;9.39;85.79
71299;BME280;59083;47.974;21.722;2023-02-19T08:59:27;100189.34;;;9.41;85.49
71299;BME280;59083;47.974;21.722;2023-02-19T09:02:28;100194.56;;;9.49;85.29
71299;BME280;59083;47.974;21.722;2023-02-19T09:05:31;100196.94;;;9.59;85.25
71299;BME280;59083;47.974;21.722;2023-02-19T09:08:32;100200.78;;;9.71;84.53
71299;BME280;59083;47.974;21.722;2023-02-19T09:11:33;100194.81;;;9.83;84.42
71299;BME280;59083;47.974;21.722;2023-02-19T09:14:34;100189.56;;;9.90;84.38
71299;BME280;59083;47.974;21.722;2023-02-19T09:17:36;100187.50;;;9.92;84.46
71299;BME280;59083;47.974;21.722;2023-02-19T09:20:37;100186.44;;;9.86;84.79
71299;BME280;59083;47.974;21.722;2023-02-19T09:23:38;100181.75;;;10.10;84.33
71299;BME280;59083;47.974;21.722;2023-02-19T09:26:39;100188.16;;;10.15;83.92
71299;BME280;59083;47.974;21.722;2023-02-19T09:29:41;100182.63;;;10.31;83.60
71299;BME280;59083;47.974;21.722;2023-02-19T09:32:42;100186.06;;;10.47;83.16
71299;BME280;59083;47.974;21.722;2023-02-19T09:35:43;100188.97;;;10.52;83.35
71299;BME280;59083;47.974;21.722;2023-02-19T09:38:45;100175.50;;;10.60;82.95
71299;BME280;59083;47.974;21.722;2023-02-19T09:41:49;100177.91;;;10.55;82.95
71299;BME280;59083;47.974;21.722;2023-02-19T09:44:54;100166.59;;;10.74;82.40
71299;BME280;59083;47.974;21.722;2023-02-19T09:47:57;100154.63;;;10.91;81.46
71299;BME280;59083;47.974;21.722;2023-02-19T09:50:58;100157.34;;;10.98;80.92
71299;BME280;59083;47.974;21.722;2023-02-19T09:54:03;100164.84;;;11.15;80.15
71299;BME280;59083;47.974;21.722;2023-02-19T09:57:12;100146.84;;;11.31;79.22
71299;BME280;59083;47.974;21.722;2023-02-19T10:00:23;100153.09;;;11.44;78.95
71299;BME280;59083;47.974;21.722;2023-02-19T10:03:27;100148.31;;;11.87;77.71
71299;BME280;59083;47.974;21.722;2023-02-19T10:06:31;100134.22;;;12.07;76.55
71299;BME280;59083;47.974;21.722;2023-02-19T10:09:34;100137.66;;;11.87;77.37
71299;BME280;59083;47.974;21.722;2023-02-19T10:12:36;100138.91;;;11.98;77.09
71299;BME280;59083;47.974;21.722;2023-02-19T10:15:43;100133.50;;;11.85;78.04
71299;BME280;59083;47.974;21.722;2023-02-19T10:18:45;100134.28;;;11.72;78.10
71299;BME280;59083;47.974;21.722;2023-02-19T10:21:47;100119.09;;;11.66;78.72
71299;BME280;59083;47.974;21.722;2023-02-19T10:24:51;100125.03;;;11.68;78.80
71299;BME280;59083;47.974;21.722;2023-02-19T10:27:53;100116.56;;;11.58;78.16
71299;BME280;59083;47.974;21.722;2023-02-19T10:30:57;100115.16;;;11.62;78.31
71299;BME280;59083;47.974;21.722;2023-02-19T10:34:00;100116.19;;;11.61;77.76
71299;BME280;59083;47.974;21.722;2023-02-19T10:37:01;100120.75;;;11.74;77.53
71299;BME280;59083;47.974;21.722;2023-02-19T10:40:03;100127.38;;;11.84;77.48
71299;BME280;59083;47.974;21.722;2023-02-19T10:43:04;100117.56;;;12.11;76.62
71299;BME280;59083;47.974;21.722;2023-02-19T10:46:13;100112.38;;;11.96;76.65
71299;BME280;59083;47.974;21.722;2023-02-19T10:52:22;100101.09;;;12.08;76.86
71299;BME280;59083;47.974;21.722;2023-02-19T10:55:32;100101.47;;;11.85;77.42
71299;BME280;59083;47.974;21.722;2023-02-19T10:58:34;100086.50;;;11.97;76.84
71299;BME280;59083;47.974;21.722;2023-02-19T11:01:38;100091.25;;;12.02;76.78
71299;BME280;59083;47.974;21.722;2023-02-19T11:08:22;100092.06;;;12.02;77.05
71299;BME280;59083;47.974;21.722;2023-02-19T11:11:35;100094.91;;;11.87;77.41
71299;BME280;59083;47.974;21.722;2023-02-19T11:14:41;100089.78;;;11.92;77.27
71299;BME280;59083;47.974;21.722;2023-02-19T11:17:43;100077.06;;;12.08;77.66
71299;BME280;59083;47.974;21.722;2023-02-19T11:21:04;100083.44;;;12.20;77.77
71299;BME280;59083;47.974;21.722;2023-02-19T11:24:22;100090.03;;;12.11;78.28
71299;BME280;59083;47.974;21.722;2023-02-19T11:27:25;100076.06;;;11.95;78.56
71299;BME280;59083;47.974;21.722;2023-02-19T11:33:30;100072.72;;;11.80;79.33
71299;BME280;59083;47.974;21.722;2023-02-19T11:36:36;100061.56;;;11.64;79.78
71299;BME280;59083;47.974;21.722;2023-02-19T11:39:38;100057.13;;;11.77;79.97
71299;BME280;59083;47.974;21.722;2023-02-19T11:42:48;100042.12;;;11.76;80.47
71299;BME280;59083;47.974;21.722;2023-02-19T11:49:38;100045.22;;;11.86;79.68
71299;BME280;59083;47.974;21.722;2023-02-19T11:53:16;100043.97;;;11.82;79.88
71299;BME280;59083;47.974;21.722;2023-02-19T11:56:31;100039.88;;;11.86;79.85
71299;BME280;59083;47.974;21.722;2023-02-19T11:59:47;100030.84;;;12.00;79.82
71299;BME280;59083;47.974;21.722;2023-02-19T12:03:03;100030.44;;;11.84;80.87
71299;BME280;59083;47.974;21.722;2023-02-19T12:06:17;100023.44;;;11.76;81.40
71299;BME280;59083;47.974;21.722;2023-02-19T12:22:42;100025.91;;;11.97;81.61
71299;BME280;59083;47.974;21.722;2023-02-19T12:26:00;99995.47;;;11.72;82.58
71299;BME280;59083;47.974;21.722;2023-02-19T12:33:23;99983.56;;;12.08;81.54
71299;BME280;59083;47.974;21.722;2023-02-19T12:43:22;99962.44;;;12.13;81.32
71299;BME280;59083;47.974;21.722;2023-02-19T12:46:36;99955.66;;;11.90;82.87
71299;BME280;59083;47.974;21.722;2023-02-19T12:49:43;99943.34;;;11.96;83.11
71299;BME280;59083;47.974;21.722;2023-02-19T12:52:50;99929.78;;;11.97;83.42
71299;BME280;59083;47.974;21.722;2023-02-19T12:55:53;99933.06;;;11.86;83.94
71299;BME280;59083;47.974;21.722;2023-02-19T13:02:34;99918.28;;;11.90;84.83
71299;BME280;59083;47.974;21.722;2023-02-19T13:12:28;99900.63;;;11.96;82.56
71299;BME280;59083;47.974;21.722;2023-02-19T13:15:36;99919.53;;;11.81;82.74
71299;BME280;59083;47.974;21.722;2023-02-19T13:18:44;99908.44;;;11.84;83.21
71299;BME280;59083;47.974;21.722;2023-02-19T13:21:51;99908.00;;;11.87;83.17
71299;BME280;59083;47.974;21.722;2023-02-19T13:25:16;99908.19;;;12.19;82.12
71299;BME280;59083;47.974;21.722;2023-02-19T13:34:58;99898.03;;;12.40;81.17
71299;BME280;59083;47.974;21.722;2023-02-19T13:38:04;99896.84;;;12.30;81.60
71299;BME280;59083;47.974;21.722;2023-02-19T13:41:39;99901.37;;;12.16;82.29
71299;BME280;59083;47.974;21.722;2023-02-19T13:44:46;99895.44;;;12.14;82.18
71299;BME280;59083;47.974;21.722;2023-02-19T13:54:19;99897.56;;;12.50;80.30
71299;BME280;59083;47.974;21.722;2023-02-19T14:00:48;99898.56;;;12.62;79.71
71299;BME280;59083;47.974;21.722;2023-02-19T14:04:05;99886.09;;;12.43;79.92
71299;BME280;59083;47.974;21.722;2023-02-19T14:10:12;99892.28;;;12.37;80.39
71299;BME280;59083;47.974;21.722;2023-02-19T14:16:54;99887.37;;;12.34;79.15
71299;BME280;59083;47.974;21.722;2023-02-19T14:20:02;99887.81;;;12.24;79.07
71299;BME280;59083;47.974;21.722;2023-02-19T14:23:23;99887.41;;;12.21;79.25
71299;BME280;59083;47.974;21.722;2023-02-19T14:26:24;99883.31;;;12.18;79.74
71299;BME280;59083;47.974;21.722;2023-02-19T14:29:26;99877.53;;;12.21;79.84
71299;BME280;59083;47.974;21.722;2023-02-19T14:32:29;99871.34;;;12.27;79.65
71299;BME280;59083;47.974;21.722;2023-02-19T14:35:38;99884.88;;;12.39;79.07
71299;BME280;59083;47.974;21.722;2023-02-19T14:38:45;99881.16;;;12.47;78.51
71299;BME280;59083;47.974;21.722;2023-02-19T14:41:49;99888.53;;;12.51;78.46
71299;BME280;59083;47.974;21.722;2023-02-19T14:44:56;99888.25;;;12.66;77.86
71299;BME280;59083;47.974;21.722;2023-02-19T14:47:58;99878.72;;;12.76;77.63
71299;BME280;59083;47.974;21.722;2023-02-19T14:51:07;99902.66;;;13.03;76.40
71299;BME280;59083;47.974;21.722;2023-02-19T14:54:33;99910.81;;;13.21;75.64
71299;BME280;59083;47.974;21.722;2023-02-19T14:57:38;99916.50;;;13.31;74.97
71299;BME280;59083;47.974;21.722;2023-02-19T15:00:41;99915.91;;;13.29;74.52
71299;BME280;59083;47.974;21.722;2023-02-19T15:03:48;99917.37;;;13.25;75.21
71299;BME280;59083;47.974;21.722;2023-02-19T15:06:49;99911.25;;;13.11;74.00
71299;BME280;59083;47.974;21.722;2023-02-19T15:09:56;99909.00;;;13.08;73.19
71299;BME280;59083;47.974;21.722;2023-02-19T15:13:01;99908.03;;;13.03;73.29
71299;BME280;59083;47.974;21.722;2023-02-19T15:16:04;99929.78;;;13.06;72.66
71299;BME280;59083;47.974;21.722;2023-02-19T15:19:08;99963.22;;;12.91;73.68
71299;BME280;59083;47.974;21.722;2023-02-19T15:22:18;99974.09;;;12.31;76.79
71299;BME280;59083;47.974;21.722;2023-02-19T15:25:31;99977.81;;;11.65;80.95
71299;BME280;59083;47.974;21.722;2023-02-19T15:28:33;100002.75;;;11.17;83.95
71299;BME280;59083;47.974;21.722;2023-02-19T15:31:35;100002.25;;;10.94;85.67
71299;BME280;59083;47.974;21.722;2023-02-19T15:34:36;100011.00;;;10.75;87.04
71299;BME280;59083;47.974;21.722;2023-02-19T15:37:38;100010.69;;;10.57;88.66
71299;BME280;59083;47.974;21.722;2023-02-19T15:40:43;100009.81;;;10.50;89.32
71299;BME280;59083;47.974;21.722;2023-02-19T15:46:55;100006.87;;;10.10;93.44
71299;BME280;59083;47.974;21.722;2023-02-19T15:53:06;100006.16;;;9.95;95.02
71299;BME280;59083;47.974;21.722;2023-02-19T15:56:20;100006.03;;;9.82;96.79
71299;BME280;59083;47.974;21.722;2023-02-19T15:59:38;100008.56;;;9.69;96.97
71299;BME280;59083;47.974;21.722;2023-02-19T16:02:41;100009.97;;;9.65;97.58
71299;BME280;59083;47.974;21.722;2023-02-19T16:05:43;100012.38;;;9.60;97.74
71299;BME280;59083;47.974;21.722;2023-02-19T16:09:00;100015.53;;;9.48;99.42
71299;BME280;59083;47.974;21.722;2023-02-19T16:12:22;100024.91;;;9.44;99.49
71299;BME280;59083;47.974;21.722;2023-02-19T16:15:24;100029.59;;;9.42;99.97
71299;BME280;59083;47.974;21.722;2023-02-19T16:18:26;100055.09;;;9.37;100.00
71299;BME280;59083;47.974;21.722;2023-02-19T16:21:27;100066.19;;;9.40;98.64
71299;BME280;59083;47.974;21.722;2023-02-19T16:24:34;100072.62;;;9.31;100.00
71299;BME280;59083;47.974;21.722;2023-02-19T16:27:39;100081.25;;;9.33;100.00
71299;BME280;59083;47.974;21.722;2023-02-19T16:30:41;100095.38;;;9.34;99.48
71299;BME280;59083;47.974;21.722;2023-02-19T16:33:44;100118.84;;;9.30;99.30
71299;BME280;59083;47.974;21.722;2023-02-19T16:36:47;100128.09;;;9.34;98.81
71299;BME280;59083;47.974;21.722;2023-02-19T16:39:58;100138.28;;;9.31;98.01
71299;BME280;59083;47.974;21.722;2023-02-19T16:46:14;100145.44;;;9.30;97.77
71299;BME280;59083;47.974;21.722;2023-02-19T16:49:16;100140.12;;;9.30;97.67
71299;BME280;59083;47.974;21.722;2023-02-19T16:52:18;100158.09;;;9.28;97.71
71299;BME280;59083;47.974;21.722;2023-02-19T16:55:19;100166.44;;;9.25;97.73
71299;BME280;59083;47.974;21.722;2023-02-19T16:58:20;100177.62;;;9.21;97.99
71299;BME280;59083;47.974;21.722;2023-02-19T17:01:22;100179.00;;;9.17;97.98
71299;BME280;59083;47.974;21.722;2023-02-19T17:04:24;100186.88;;;9.10;98.47
71299;BME280;59083;47.974;21.722;2023-02-19T17:07:25;100219.84;;;9.01;97.89
71299;BME280;59083;47.974;21.722;2023-02-19T17:10:27;100227.31;;;9.05;97.40
71299;BME280;59083;47.974;21.722;2023-02-19T17:13:29;100249.38;;;9.06;96.91
71299;BME280;59083;47.974;21.722;2023-02-19T17:16:31;100257.56;;;9.04;96.66
71299;BME280;59083;47.974;21.722;2023-02-19T17:19:39;100258.16;;;8.92;96.10
71299;BME280;59083;47.974;21.722;2023-02-19T17:22:41;100256.88;;;8.88;96.12
71299;BME280;59083;47.974;21.722;2023-02-19T17:25:42;100257.59;;;8.82;95.04
71299;BME280;59083;47.974;21.722;2023-02-19T17:28:43;100264.56;;;8.83;93.26
71299;BME280;59083;47.974;21.722;2023-02-19T17:31:45;100275.59;;;8.71;90.24
71299;BME280;59083;47.974;21.722;2023-02-19T17:34:46;100282.62;;;8.64;88.93
71299;BME280;59083;47.974;21.722;2023-02-19T17:37:49;100289.69;;;8.49;85.34
71299;BME280;59083;47.974;21.722;2023-02-19T17:40:51;100283.66;;;8.33;84.58
71299;BME280;59083;47.974;21.722;2023-02-19T17:43:53;100302.75;;;8.28;85.02
71299;BME280;59083;47.974;21.722;2023-02-19T17:46:54;100296.56;;;8.05;84.62
71299;BME280;59083;47.974;21.722;2023-02-19T17:49:55;100310.81;;;8.04;83.85